sensor_id;sensor_type;location;lat;lon;timestamp;P1;durP1;ratioP1;P2;durP2;ratioP2
59273;SDS011;45044;41.572;24.730;2024-03-02T00:00:27;37.65;;;23.55;;
59273;SDS011;45044;41.572;24.730;2024-03-02T00:02:54;36.90;;;23.42;;
59273;SDS011;45044;41.572;24.730;2024-03-02T00:05:21;37.85;;;22.38;;
59273;SDS011;45044;41.572;24.730;2024-03-02T00:10:23;35.83;;;22.77;;
59273;SDS011;45044;41.572;24.730;2024-03-02T00:12:56;46.92;;;24.73;;
59273;SDS011;45044;41.572;24.730;2024-03-02T00:17:56;41.95;;;26.17;;
59273;SDS011;45044;41.572;24.730;2024-03-02T00:20:25;39.42;;;23.65;;
59273;SDS011;45044;41.572;24.730;2024-03-02T00:23:03;37.00;;;22.08;;
59273;SDS011;45044;41.572;24.730;2024-03-02T00:25:38;31.10;;;20.95;;
59273;SDS011;45044;41.572;24.730;2024-03-02T00:33:21;38.25;;;23.90;;
59273;SDS011;45044;41.572;24.730;2024-03-02T00:35:49;42.97;;;25.45;;
59273;SDS011;45044;41.572;24.730;2024-03-02T00:38:17;44.50;;;25.52;;
59273;SDS011;45044;41.572;24.730;2024-03-02T00:40:44;30.98;;;18.90;;
59273;SDS011;45044;41.572;24.730;2024-03-02T00:43:45;26.80;;;17.33;;
59273;SDS011;45044;41.572;24.730;2024-03-02T00:46:18;29.23;;;18.08;;
59273;SDS011;45044;41.572;24.730;2024-03-02T00:48:55;31.25;;;19.13;;
59273;SDS011;45044;41.572;24.730;2024-03-02T00:51:24;35.63;;;20.38;;
59273;SDS011;45044;41.572;24.730;2024-03-02T00:53:53;30.63;;;19.70;;
59273;SDS011;45044;41.572;24.730;2024-03-02T00:56:24;32.65;;;20.45;;
59273;SDS011;45044;41.572;24.730;2024-03-02T00:58:51;31.73;;;19.75;;
59273;SDS011;45044;41.572;24.730;2024-03-02T01:01:19;36.53;;;24.05;;
59273;SDS011;45044;41.572;24.730;2024-03-02T01:03:46;36.72;;;22.77;;
59273;SDS011;45044;41.572;24.730;2024-03-02T01:06:13;35.65;;;22.60;;
59273;SDS011;45044;41.572;24.730;2024-03-02T01:08:42;35.90;;;21.42;;
59273;SDS011;45044;41.572;24.730;2024-03-02T01:11:09;36.55;;;22.55;;
59273;SDS011;45044;41.572;24.730;2024-03-02T01:13:36;68.47;;;33.13;;
59273;SDS011;45044;41.572;24.730;2024-03-02T01:16:05;54.97;;;31.17;;
59273;SDS011;45044;41.572;24.730;2024-03-02T01:18:31;41.10;;;23.50;;
59273;SDS011;45044;41.572;24.730;2024-03-02T01:20:58;37.92;;;23.50;;
59273;SDS011;45044;41.572;24.730;2024-03-02T01:23:25;66.00;;;32.67;;
59273;SDS011;45044;41.572;24.730;2024-03-02T01:25:52;40.90;;;24.73;;
59273;SDS011;45044;41.572;24.730;2024-03-02T01:28:19;34.28;;;22.40;;
59273;SDS011;45044;41.572;24.730;2024-03-02T01:30:47;37.42;;;22.17;;
59273;SDS011;45044;41.572;24.730;2024-03-02T01:33:16;44.90;;;25.77;;
59273;SDS011;45044;41.572;24.730;2024-03-02T01:35:44;38.80;;;23.58;;
59273;SDS011;45044;41.572;24.730;2024-03-02T01:38:11;34.92;;;22.83;;
59273;SDS011;45044;41.572;24.730;2024-03-02T01:40:39;34.63;;;22.15;;
59273;SDS011;45044;41.572;24.730;2024-03-02T01:43:06;35.00;;;21.48;;
59273;SDS011;45044;41.572;24.730;2024-03-02T01:45:34;33.72;;;20.67;;
59273;SDS011;45044;41.572;24.730;2024-03-02T01:48:03;32.05;;;19.42;;
59273;SDS011;45044;41.572;24.730;2024-03-02T01:50:32;30.27;;;19.35;;
59273;SDS011;45044;41.572;24.730;2024-03-02T01:52:59;31.65;;;20.95;;
59273;SDS011;45044;41.572;24.730;2024-03-02T01:55:27;33.25;;;21.33;;
59273;SDS011;45044;41.572;24.730;2024-03-02T01:57:57;34.78;;;22.30;;
59273;SDS011;45044;41.572;24.730;2024-03-02T02:00:25;40.50;;;24.13;;
59273;SDS011;45044;41.572;24.730;2024-03-02T02:02:52;37.08;;;23.83;;
59273;SDS011;45044;41.572;24.730;2024-03-02T02:05:20;35.70;;;23.38;;
59273;SDS011;45044;41.572;24.730;2024-03-02T02:07:47;39.10;;;22.83;;
59273;SDS011;45044;41.572;24.730;2024-03-02T02:10:14;41.60;;;24.00;;
59273;SDS011;45044;41.572;24.730;2024-03-02T02:12:41;35.72;;;22.77;;
59273;SDS011;45044;41.572;24.730;2024-03-02T02:15:24;36.13;;;22.55;;
59273;SDS011;45044;41.572;24.730;2024-03-02T02:17:54;29.98;;;20.55;;
59273;SDS011;45044;41.572;24.730;2024-03-02T02:20:22;33.25;;;21.20;;
59273;SDS011;45044;41.572;24.730;2024-03-02T02:22:59;32.20;;;19.10;;
59273;SDS011;45044;41.572;24.730;2024-03-02T02:25:29;31.80;;;19.15;;
59273;SDS011;45044;41.572;24.730;2024-03-02T02:27:57;32.47;;;19.40;;
59273;SDS011;45044;41.572;24.730;2024-03-02T02:30:29;28.48;;;17.38;;
59273;SDS011;45044;41.572;24.730;2024-03-02T02:32:57;27.63;;;18.48;;
59273;SDS011;45044;41.572;24.730;2024-03-02T02:35:24;29.90;;;18.77;;
59273;SDS011;45044;41.572;24.730;2024-03-02T02:37:52;33.58;;;21.55;;
59273;SDS011;45044;41.572;24.730;2024-03-02T02:40:22;31.02;;;21.08;;
59273;SDS011;45044;41.572;24.730;2024-03-02T02:42:49;35.90;;;21.80;;
59273;SDS011;45044;41.572;24.730;2024-03-02T02:45:19;29.80;;;19.60;;
59273;SDS011;45044;41.572;24.730;2024-03-02T02:47:46;35.20;;;21.17;;
59273;SDS011;45044;41.572;24.730;2024-03-02T02:50:12;34.72;;;22.95;;
59273;SDS011;45044;41.572;24.730;2024-03-02T02:52:40;30.27;;;20.67;;
59273;SDS011;45044;41.572;24.730;2024-03-02T02:55:08;36.08;;;23.65;;
59273;SDS011;45044;41.572;24.730;2024-03-02T02:57:39;32.95;;;21.70;;
59273;SDS011;45044;41.572;24.730;2024-03-02T03:00:13;35.20;;;21.90;;
59273;SDS011;45044;41.572;24.730;2024-03-02T03:02:43;31.77;;;21.85;;
59273;SDS011;45044;41.572;24.730;2024-03-02T03:05:13;32.38;;;21.25;;
59273;SDS011;45044;41.572;24.730;2024-03-02T03:07:41;37.58;;;22.17;;
59273;SDS011;45044;41.572;24.730;2024-03-02T03:10:08;33.92;;;22.45;;
59273;SDS011;45044;41.572;24.730;2024-03-02T03:12:35;44.17;;;26.23;;
59273;SDS011;45044;41.572;24.730;2024-03-02T03:15:03;41.15;;;25.55;;
59273;SDS011;45044;41.572;24.730;2024-03-02T03:17:35;40.92;;;26.38;;
59273;SDS011;45044;41.572;24.730;2024-03-02T03:20:02;41.10;;;25.08;;
59273;SDS011;45044;41.572;24.730;2024-03-02T03:22:30;42.55;;;25.80;;
59273;SDS011;45044;41.572;24.730;2024-03-02T03:25:01;40.65;;;25.67;;
59273;SDS011;45044;41.572;24.730;2024-03-02T03:27:30;46.88;;;26.58;;
59273;SDS011;45044;41.572;24.730;2024-03-02T03:29:56;42.38;;;27.50;;
59273;SDS011;45044;41.572;24.730;2024-03-02T03:32:24;41.97;;;27.38;;
59273;SDS011;45044;41.572;24.730;2024-03-02T03:34:51;43.90;;;26.85;;
59273;SDS011;45044;41.572;24.730;2024-03-02T03:37:18;46.72;;;26.77;;
59273;SDS011;45044;41.572;24.730;2024-03-02T03:39:45;37.78;;;24.52;;
59273;SDS011;45044;41.572;24.730;2024-03-02T03:42:12;34.17;;;21.77;;
59273;SDS011;45044;41.572;24.730;2024-03-02T03:44:38;34.60;;;23.00;;
59273;SDS011;45044;41.572;24.730;2024-03-02T03:47:06;30.33;;;20.77;;
59273;SDS011;45044;41.572;24.730;2024-03-02T03:49:33;35.20;;;23.70;;
59273;SDS011;45044;41.572;24.730;2024-03-02T03:52:00;32.28;;;22.73;;
59273;SDS011;45044;41.572;24.730;2024-03-02T03:54:27;36.47;;;22.88;;
59273;SDS011;45044;41.572;24.730;2024-03-02T03:56:53;36.47;;;24.33;;
59273;SDS011;45044;41.572;24.730;2024-03-02T03:59:20;33.35;;;22.75;;
59273;SDS011;45044;41.572;24.730;2024-03-02T04:01:47;36.05;;;24.58;;
59273;SDS011;45044;41.572;24.730;2024-03-02T04:04:14;35.13;;;24.10;;
59273;SDS011;45044;41.572;24.730;2024-03-02T04:06:41;42.10;;;25.23;;
59273;SDS011;45044;41.572;24.730;2024-03-02T04:09:12;31.70;;;22.10;;
59273;SDS011;45044;41.572;24.730;2024-03-02T04:11:39;36.63;;;23.90;;
59273;SDS011;45044;41.572;24.730;2024-03-02T04:14:06;39.65;;;25.80;;
59273;SDS011;45044;41.572;24.730;2024-03-02T04:16:33;39.20;;;27.02;;
59273;SDS011;45044;41.572;24.730;2024-03-02T04:18:59;44.92;;;27.80;;
59273;SDS011;45044;41.572;24.730;2024-03-02T04:21:26;35.95;;;24.98;;
59273;SDS011;45044;41.572;24.730;2024-03-02T04:23:53;51.50;;;29.10;;
59273;SDS011;45044;41.572;24.730;2024-03-02T04:26:24;44.17;;;27.33;;
59273;SDS011;45044;41.572;24.730;2024-03-02T04:28:52;37.38;;;26.77;;
59273;SDS011;45044;41.572;24.730;2024-03-02T04:31:20;42.70;;;27.38;;
59273;SDS011;45044;41.572;24.730;2024-03-02T04:33:47;43.13;;;28.55;;
59273;SDS011;45044;41.572;24.730;2024-03-02T04:36:23;40.25;;;24.77;;
59273;SDS011;45044;41.572;24.730;2024-03-02T04:38:50;41.33;;;26.08;;
59273;SDS011;45044;41.572;24.730;2024-03-02T04:41:17;44.55;;;27.48;;
59273;SDS011;45044;41.572;24.730;2024-03-02T04:43:45;46.40;;;28.73;;
59273;SDS011;45044;41.572;24.730;2024-03-02T04:46:11;43.72;;;27.73;;
59273;SDS011;45044;41.572;24.730;2024-03-02T04:48:38;42.47;;;28.88;;
59273;SDS011;45044;41.572;24.730;2024-03-02T04:51:05;47.25;;;29.42;;
59273;SDS011;45044;41.572;24.730;2024-03-02T04:53:32;43.72;;;26.55;;
59273;SDS011;45044;41.572;24.730;2024-03-02T04:55:59;41.70;;;27.90;;
59273;SDS011;45044;41.572;24.730;2024-03-02T05:01:11;40.67;;;26.52;;
59273;SDS011;45044;41.572;24.730;2024-03-02T05:03:39;39.97;;;26.23;;
59273;SDS011;45044;41.572;24.730;2024-03-02T05:06:06;42.65;;;27.80;;
59273;SDS011;45044;41.572;24.730;2024-03-02T05:08:32;46.08;;;27.15;;
59273;SDS011;45044;41.572;24.730;2024-03-02T05:10:59;36.03;;;24.88;;
59273;SDS011;45044;41.572;24.730;2024-03-02T05:13:46;40.80;;;28.00;;
59273;SDS011;45044;41.572;24.730;2024-03-02T05:16:13;40.28;;;28.95;;
59273;SDS011;45044;41.572;24.730;2024-03-02T05:18:39;46.50;;;28.50;;
59273;SDS011;45044;41.572;24.730;2024-03-02T05:21:06;47.88;;;31.73;;
59273;SDS011;45044;41.572;24.730;2024-03-02T05:23:33;54.33;;;32.60;;
59273;SDS011;45044;41.572;24.730;2024-03-02T05:25:59;45.83;;;30.85;;
59273;SDS011;45044;41.572;24.730;2024-03-02T05:28:26;46.72;;;31.92;;
59273;SDS011;45044;41.572;24.730;2024-03-02T05:30:53;50.28;;;32.55;;
59273;SDS011;45044;41.572;24.730;2024-03-02T05:33:20;47.28;;;31.88;;
59273;SDS011;45044;41.572;24.730;2024-03-02T05:35:49;50.25;;;33.50;;
59273;SDS011;45044;41.572;24.730;2024-03-02T05:38:19;51.85;;;34.08;;
59273;SDS011;45044;41.572;24.730;2024-03-02T05:40:46;56.83;;;39.35;;
59273;SDS011;45044;41.572;24.730;2024-03-02T05:43:13;57.78;;;38.58;;
59273;SDS011;45044;41.572;24.730;2024-03-02T05:45:40;77.93;;;43.63;;
59273;SDS011;45044;41.572;24.730;2024-03-02T05:48:07;164.70;;;74.53;;
59273;SDS011;45044;41.572;24.730;2024-03-02T05:50:35;119.82;;;60.38;;
59273;SDS011;45044;41.572;24.730;2024-03-02T05:53:02;96.07;;;61.75;;
59273;SDS011;45044;41.572;24.730;2024-03-02T05:55:29;67.90;;;41.85;;
59273;SDS011;45044;41.572;24.730;2024-03-02T05:57:56;56.78;;;39.42;;
59273;SDS011;45044;41.572;24.730;2024-03-02T06:00:43;59.20;;;36.97;;
59273;SDS011;45044;41.572;24.730;2024-03-02T06:03:10;61.33;;;40.60;;
59273;SDS011;45044;41.572;24.730;2024-03-02T06:05:37;61.90;;;40.45;;
59273;SDS011;45044;41.572;24.730;2024-03-02T06:08:04;66.93;;;39.97;;
59273;SDS011;45044;41.572;24.730;2024-03-02T06:10:31;82.20;;;43.20;;
59273;SDS011;45044;41.572;24.730;2024-03-02T06:13:06;79.80;;;46.38;;
59273;SDS011;45044;41.572;24.730;2024-03-02T06:15:33;101.43;;;54.53;;
59273;SDS011;45044;41.572;24.730;2024-03-02T06:18:02;143.35;;;62.33;;
59273;SDS011;45044;41.572;24.730;2024-03-02T06:20:31;146.55;;;68.70;;
59273;SDS011;45044;41.572;24.730;2024-03-02T06:23:03;132.15;;;59.75;;
59273;SDS011;45044;41.572;24.730;2024-03-02T06:25:30;123.50;;;58.60;;
59273;SDS011;45044;41.572;24.730;2024-03-02T06:27:57;88.57;;;49.47;;
59273;SDS011;45044;41.572;24.730;2024-03-02T06:30:24;132.77;;;61.83;;
59273;SDS011;45044;41.572;24.730;2024-03-02T06:32:53;82.15;;;49.28;;
59273;SDS011;45044;41.572;24.730;2024-03-02T06:35:21;63.60;;;43.40;;
59273;SDS011;45044;41.572;24.730;2024-03-02T06:37:47;61.17;;;42.67;;
59273;SDS011;45044;41.572;24.730;2024-03-02T06:40:14;60.72;;;41.35;;
59273;SDS011;45044;41.572;24.730;2024-03-02T06:42:41;56.47;;;40.22;;
59273;SDS011;45044;41.572;24.730;2024-03-02T06:45:08;53.15;;;36.50;;
59273;SDS011;45044;41.572;24.730;2024-03-02T06:47:34;59.15;;;41.28;;
59273;SDS011;45044;41.572;24.730;2024-03-02T06:50:01;58.47;;;42.55;;
59273;SDS011;45044;41.572;24.730;2024-03-02T06:52:28;56.95;;;39.42;;
59273;SDS011;45044;41.572;24.730;2024-03-02T06:54:55;76.97;;;51.95;;
59273;SDS011;45044;41.572;24.730;2024-03-02T06:57:21;69.28;;;47.25;;
59273;SDS011;45044;41.572;24.730;2024-03-02T06:59:48;78.78;;;53.65;;
59273;SDS011;45044;41.572;24.730;2024-03-02T07:02:17;62.50;;;42.22;;
59273;SDS011;45044;41.572;24.730;2024-03-02T07:04:44;57.35;;;39.80;;
59273;SDS011;45044;41.572;24.730;2024-03-02T07:07:11;55.70;;;38.53;;
59273;SDS011;45044;41.572;24.730;2024-03-02T07:09:39;55.53;;;40.38;;
59273;SDS011;45044;41.572;24.730;2024-03-02T07:12:06;54.35;;;38.83;;
59273;SDS011;45044;41.572;24.730;2024-03-02T07:14:33;54.60;;;40.28;;
59273;SDS011;45044;41.572;24.730;2024-03-02T07:19:45;64.10;;;43.83;;
59273;SDS011;45044;41.572;24.730;2024-03-02T07:22:12;65.53;;;41.20;;
59273;SDS011;45044;41.572;24.730;2024-03-02T07:24:39;66.35;;;41.97;;
59273;SDS011;45044;41.572;24.730;2024-03-02T07:27:12;64.47;;;45.72;;
59273;SDS011;45044;41.572;24.730;2024-03-02T07:29:41;68.32;;;47.05;;
59273;SDS011;45044;41.572;24.730;2024-03-02T07:32:09;57.78;;;42.08;;
59273;SDS011;45044;41.572;24.730;2024-03-02T07:34:40;62.97;;;45.33;;
59273;SDS011;45044;41.572;24.730;2024-03-02T07:37:09;67.97;;;48.08;;
59273;SDS011;45044;41.572;24.730;2024-03-02T07:39:36;57.10;;;42.83;;
59273;SDS011;45044;41.572;24.730;2024-03-02T07:42:03;65.38;;;42.63;;
59273;SDS011;45044;41.572;24.730;2024-03-02T07:44:31;59.05;;;42.97;;
59273;SDS011;45044;41.572;24.730;2024-03-02T07:46:58;57.50;;;43.88;;
59273;SDS011;45044;41.572;24.730;2024-03-02T07:49:25;58.83;;;42.47;;
59273;SDS011;45044;41.572;24.730;2024-03-02T07:51:52;39.00;;;30.15;;
59273;SDS011;45044;41.572;24.730;2024-03-02T07:54:20;48.47;;;38.72;;
59273;SDS011;45044;41.572;24.730;2024-03-02T07:56:47;41.80;;;28.98;;
59273;SDS011;45044;41.572;24.730;2024-03-02T07:59:14;37.55;;;26.95;;
59273;SDS011;45044;41.572;24.730;2024-03-02T08:01:42;37.60;;;24.50;;
59273;SDS011;45044;41.572;24.730;2024-03-02T08:04:09;36.65;;;25.30;;
59273;SDS011;45044;41.572;24.730;2024-03-02T08:06:37;37.20;;;25.27;;
59273;SDS011;45044;41.572;24.730;2024-03-02T08:09:04;32.63;;;23.10;;
59273;SDS011;45044;41.572;24.730;2024-03-02T08:11:35;37.60;;;25.00;;
59273;SDS011;45044;41.572;24.730;2024-03-02T08:14:03;39.70;;;26.10;;
59273;SDS011;45044;41.572;24.730;2024-03-02T08:16:30;34.17;;;25.15;;
59273;SDS011;45044;41.572;24.730;2024-03-02T08:18:57;34.22;;;23.75;;
59273;SDS011;45044;41.572;24.730;2024-03-02T08:21:25;34.20;;;24.45;;
59273;SDS011;45044;41.572;24.730;2024-03-02T08:23:52;33.15;;;22.88;;
59273;SDS011;45044;41.572;24.730;2024-03-02T08:26:19;38.25;;;29.40;;
59273;SDS011;45044;41.572;24.730;2024-03-02T08:28:47;35.97;;;27.55;;
59273;SDS011;45044;41.572;24.730;2024-03-02T08:31:17;43.22;;;32.65;;
59273;SDS011;45044;41.572;24.730;2024-03-02T08:33:44;41.50;;;27.70;;
59273;SDS011;45044;41.572;24.730;2024-03-02T08:36:11;40.30;;;27.67;;
59273;SDS011;45044;41.572;24.730;2024-03-02T08:38:38;35.30;;;24.50;;
59273;SDS011;45044;41.572;24.730;2024-03-02T08:41:05;36.45;;;25.00;;
59273;SDS011;45044;41.572;24.730;2024-03-02T08:43:34;36.22;;;24.63;;
59273;SDS011;45044;41.572;24.730;2024-03-02T08:46:00;59.47;;;34.90;;
59273;SDS011;45044;41.572;24.730;2024-03-02T08:48:28;35.45;;;23.90;;
59273;SDS011;45044;41.572;24.730;2024-03-02T08:50:55;30.90;;;21.55;;
59273;SDS011;45044;41.572;24.730;2024-03-02T08:53:21;37.20;;;24.02;;
59273;SDS011;45044;41.572;24.730;2024-03-02T08:55:48;29.27;;;19.77;;
59273;SDS011;45044;41.572;24.730;2024-03-02T08:58:17;24.55;;;17.08;;
59273;SDS011;45044;41.572;24.730;2024-03-02T09:00:43;35.70;;;23.55;;
59273;SDS011;45044;41.572;24.730;2024-03-02T09:03:10;35.88;;;24.58;;
59273;SDS011;45044;41.572;24.730;2024-03-02T09:05:37;39.30;;;25.75;;
59273;SDS011;45044;41.572;24.730;2024-03-02T09:08:04;20.65;;;12.60;;
59273;SDS011;45044;41.572;24.730;2024-03-02T09:10:33;19.33;;;11.05;;
59273;SDS011;45044;41.572;24.730;2024-03-02T09:13:01;19.70;;;12.45;;
59273;SDS011;45044;41.572;24.730;2024-03-02T09:15:28;17.02;;;12.40;;
59273;SDS011;45044;41.572;24.730;2024-03-02T09:17:55;17.90;;;13.32;;
59273;SDS011;45044;41.572;24.730;2024-03-02T09:20:22;22.95;;;15.73;;
59273;SDS011;45044;41.572;24.730;2024-03-02T09:22:49;22.00;;;15.38;;
59273;SDS011;45044;41.572;24.730;2024-03-02T09:25:16;24.90;;;15.95;;
59273;SDS011;45044;41.572;24.730;2024-03-02T09:27:43;24.65;;;15.98;;
59273;SDS011;45044;41.572;24.730;2024-03-02T09:30:10;22.73;;;14.75;;
59273;SDS011;45044;41.572;24.730;2024-03-02T09:32:39;19.13;;;12.32;;
59273;SDS011;45044;41.572;24.730;2024-03-02T09:35:06;19.67;;;14.20;;
59273;SDS011;45044;41.572;24.730;2024-03-02T09:37:34;19.40;;;12.95;;
59273;SDS011;45044;41.572;24.730;2024-03-02T09:40:02;22.23;;;14.00;;
59273;SDS011;45044;41.572;24.730;2024-03-02T09:42:30;14.68;;;9.93;;
59273;SDS011;45044;41.572;24.730;2024-03-02T09:44:58;15.77;;;9.65;;
59273;SDS011;45044;41.572;24.730;2024-03-02T09:47:27;12.90;;;9.18;;
59273;SDS011;45044;41.572;24.730;2024-03-02T09:49:54;14.80;;;10.02;;
59273;SDS011;45044;41.572;24.730;2024-03-02T09:52:25;20.00;;;11.93;;
59273;SDS011;45044;41.572;24.730;2024-03-02T09:54:52;14.90;;;8.05;;
59273;SDS011;45044;41.572;24.730;2024-03-02T09:57:19;10.00;;;6.30;;
59273;SDS011;45044;41.572;24.730;2024-03-02T09:59:45;14.27;;;8.50;;
59273;SDS011;45044;41.572;24.730;2024-03-02T10:02:12;11.48;;;6.20;;
59273;SDS011;45044;41.572;24.730;2024-03-02T10:04:39;14.02;;;9.27;;
59273;SDS011;45044;41.572;24.730;2024-03-02T10:07:12;15.25;;;10.00;;
59273;SDS011;45044;41.572;24.730;2024-03-02T10:09:44;17.67;;;9.88;;
59273;SDS011;45044;41.572;24.730;2024-03-02T10:12:12;15.30;;;9.05;;
59273;SDS011;45044;41.572;24.730;2024-03-02T10:14:41;10.07;;;6.43;;
59273;SDS011;45044;41.572;24.730;2024-03-02T10:17:10;12.27;;;8.27;;
59273;SDS011;45044;41.572;24.730;2024-03-02T10:19:38;15.15;;;9.95;;
59273;SDS011;45044;41.572;24.730;2024-03-02T10:22:09;13.38;;;8.95;;
59273;SDS011;45044;41.572;24.730;2024-03-02T10:24:40;16.08;;;9.63;;
59273;SDS011;45044;41.572;24.730;2024-03-02T10:27:15;14.40;;;9.35;;
59273;SDS011;45044;41.572;24.730;2024-03-02T10:29:46;16.30;;;10.50;;
59273;SDS011;45044;41.572;24.730;2024-03-02T10:32:14;31.83;;;18.55;;
59273;SDS011;45044;41.572;24.730;2024-03-02T10:34:42;32.83;;;15.40;;
59273;SDS011;45044;41.572;24.730;2024-03-02T10:37:11;22.45;;;13.32;;
59273;SDS011;45044;41.572;24.730;2024-03-02T10:39:39;16.92;;;10.73;;
59273;SDS011;45044;41.572;24.730;2024-03-02T10:42:07;17.73;;;10.68;;
59273;SDS011;45044;41.572;24.730;2024-03-02T10:44:34;21.30;;;14.55;;
59273;SDS011;45044;41.572;24.730;2024-03-02T10:47:03;22.00;;;13.23;;
59273;SDS011;45044;41.572;24.730;2024-03-02T10:49:32;19.00;;;11.30;;
59273;SDS011;45044;41.572;24.730;2024-03-02T10:51:59;17.63;;;9.77;;
59273;SDS011;45044;41.572;24.730;2024-03-02T10:54:27;11.23;;;7.00;;
59273;SDS011;45044;41.572;24.730;2024-03-02T10:56:59;11.40;;;6.50;;
59273;SDS011;45044;41.572;24.730;2024-03-02T10:59:33;18.50;;;8.75;;
59273;SDS011;45044;41.572;24.730;2024-03-02T11:02:03;17.92;;;9.32;;
59273;SDS011;45044;41.572;24.730;2024-03-02T11:04:34;14.85;;;10.13;;
59273;SDS011;45044;41.572;24.730;2024-03-02T11:07:02;11.98;;;8.23;;
59273;SDS011;45044;41.572;24.730;2024-03-02T11:09:37;10.90;;;7.28;;
59273;SDS011;45044;41.572;24.730;2024-03-02T11:14:52;12.52;;;7.53;;
59273;SDS011;45044;41.572;24.730;2024-03-02T11:17:20;15.75;;;10.90;;
59273;SDS011;45044;41.572;24.730;2024-03-02T11:19:49;15.15;;;10.13;;
59273;SDS011;45044;41.572;24.730;2024-03-02T11:22:18;16.50;;;11.30;;
59273;SDS011;45044;41.572;24.730;2024-03-02T11:24:50;22.67;;;14.07;;
59273;SDS011;45044;41.572;24.730;2024-03-02T11:33:02;12.35;;;7.82;;
59273;SDS011;45044;41.572;24.730;2024-03-02T11:35:42;13.02;;;9.13;;
59273;SDS011;45044;41.572;24.730;2024-03-02T11:38:13;10.13;;;6.85;;
59273;SDS011;45044;41.572;24.730;2024-03-02T11:40:40;17.58;;;8.30;;
59273;SDS011;45044;41.572;24.730;2024-03-02T11:43:07;11.75;;;7.50;;
59273;SDS011;45044;41.572;24.730;2024-03-02T11:45:36;11.10;;;5.53;;
59273;SDS011;45044;41.572;24.730;2024-03-02T11:48:08;12.48;;;7.05;;
59273;SDS011;45044;41.572;24.730;2024-03-02T11:50:46;13.35;;;9.48;;
59273;SDS011;45044;41.572;24.730;2024-03-02T11:53:16;10.02;;;5.78;;
59273;SDS011;45044;41.572;24.730;2024-03-02T11:55:45;10.32;;;6.82;;
59273;SDS011;45044;41.572;24.730;2024-03-02T11:58:17;13.52;;;7.53;;
59273;SDS011;45044;41.572;24.730;2024-03-02T12:00:47;7.20;;;4.05;;
59273;SDS011;45044;41.572;24.730;2024-03-02T12:03:18;6.82;;;4.18;;
59273;SDS011;45044;41.572;24.730;2024-03-02T12:05:49;5.68;;;2.83;;
59273;SDS011;45044;41.572;24.730;2024-03-02T12:08:17;8.73;;;4.35;;
59273;SDS011;45044;41.572;24.730;2024-03-02T12:10:43;20.48;;;10.40;;
59273;SDS011;45044;41.572;24.730;2024-03-02T12:13:23;118.07;;;50.15;;
59273;SDS011;45044;41.572;24.730;2024-03-02T12:15:52;31.38;;;17.65;;
59273;SDS011;45044;41.572;24.730;2024-03-02T12:18:21;46.65;;;26.95;;
59273;SDS011;45044;41.572;24.730;2024-03-02T12:20:49;10.70;;;5.65;;
59273;SDS011;45044;41.572;24.730;2024-03-02T12:23:19;8.57;;;4.82;;
59273;SDS011;45044;41.572;24.730;2024-03-02T12:25:46;4.32;;;2.25;;
59273;SDS011;45044;41.572;24.730;2024-03-02T12:28:13;4.93;;;2.55;;
59273;SDS011;45044;41.572;24.730;2024-03-02T12:30:40;8.15;;;4.50;;
59273;SDS011;45044;41.572;24.730;2024-03-02T12:33:07;8.30;;;5.32;;
59273;SDS011;45044;41.572;24.730;2024-03-02T12:35:35;7.43;;;4.05;;
59273;SDS011;45044;41.572;24.730;2024-03-02T12:38:02;17.15;;;9.52;;
59273;SDS011;45044;41.572;24.730;2024-03-02T12:40:30;23.75;;;11.68;;
59273;SDS011;45044;41.572;24.730;2024-03-02T12:42:57;26.80;;;14.05;;
59273;SDS011;45044;41.572;24.730;2024-03-02T12:45:24;18.42;;;10.15;;
59273;SDS011;45044;41.572;24.730;2024-03-02T12:47:52;16.98;;;10.07;;
59273;SDS011;45044;41.572;24.730;2024-03-02T12:50:20;8.05;;;4.03;;
59273;SDS011;45044;41.572;24.730;2024-03-02T12:52:51;24.13;;;12.07;;
59273;SDS011;45044;41.572;24.730;2024-03-02T12:55:19;27.02;;;14.10;;
59273;SDS011;45044;41.572;24.730;2024-03-02T12:57:46;9.35;;;4.97;;
59273;SDS011;45044;41.572;24.730;2024-03-02T13:00:17;13.77;;;5.93;;
59273;SDS011;45044;41.572;24.730;2024-03-02T13:02:45;9.98;;;5.68;;
59273;SDS011;45044;41.572;24.730;2024-03-02T13:05:12;11.13;;;5.85;;
59273;SDS011;45044;41.572;24.730;2024-03-02T13:07:46;7.78;;;4.78;;
59273;SDS011;45044;41.572;24.730;2024-03-02T13:10:14;20.75;;;11.43;;
59273;SDS011;45044;41.572;24.730;2024-03-02T13:12:45;7.80;;;4.22;;
59273;SDS011;45044;41.572;24.730;2024-03-02T13:15:12;14.30;;;9.32;;
59273;SDS011;45044;41.572;24.730;2024-03-02T13:17:44;20.25;;;11.35;;
59273;SDS011;45044;41.572;24.730;2024-03-02T13:20:13;7.93;;;5.03;;
59273;SDS011;45044;41.572;24.730;2024-03-02T13:22:43;11.82;;;7.30;;
59273;SDS011;45044;41.572;24.730;2024-03-02T13:25:09;12.93;;;8.55;;
59273;SDS011;45044;41.572;24.730;2024-03-02T13:27:38;11.18;;;6.90;;
59273;SDS011;45044;41.572;24.730;2024-03-02T13:30:05;6.97;;;4.22;;
59273;SDS011;45044;41.572;24.730;2024-03-02T13:32:33;7.63;;;4.88;;
59273;SDS011;45044;41.572;24.730;2024-03-02T13:34:59;7.10;;;3.92;;
59273;SDS011;45044;41.572;24.730;2024-03-02T13:37:26;11.30;;;8.15;;
59273;SDS011;45044;41.572;24.730;2024-03-02T13:39:53;11.00;;;7.75;;
59273;SDS011;45044;41.572;24.730;2024-03-02T13:42:20;11.60;;;7.68;;
59273;SDS011;45044;41.572;24.730;2024-03-02T13:44:48;8.77;;;5.15;;
59273;SDS011;45044;41.572;24.730;2024-03-02T13:47:17;5.32;;;2.90;;
59273;SDS011;45044;41.572;24.730;2024-03-02T13:49:45;6.93;;;4.22;;
59273;SDS011;45044;41.572;24.730;2024-03-02T13:52:14;9.68;;;5.60;;
59273;SDS011;45044;41.572;24.730;2024-03-02T13:54:41;10.70;;;6.40;;
59273;SDS011;45044;41.572;24.730;2024-03-02T13:57:12;10.40;;;6.72;;
59273;SDS011;45044;41.572;24.730;2024-03-02T13:59:40;10.52;;;6.30;;
59273;SDS011;45044;41.572;24.730;2024-03-02T14:02:09;12.05;;;7.32;;
59273;SDS011;45044;41.572;24.730;2024-03-02T14:04:37;10.90;;;6.60;;
59273;SDS011;45044;41.572;24.730;2024-03-02T14:07:05;15.10;;;10.10;;
59273;SDS011;45044;41.572;24.730;2024-03-02T14:09:37;18.25;;;9.95;;
59273;SDS011;45044;41.572;24.730;2024-03-02T14:12:04;15.02;;;9.85;;
59273;SDS011;45044;41.572;24.730;2024-03-02T14:14:31;15.25;;;11.85;;
59273;SDS011;45044;41.572;24.730;2024-03-02T14:16:58;12.32;;;9.25;;
59273;SDS011;45044;41.572;24.730;2024-03-02T14:19:33;15.55;;;10.80;;
59273;SDS011;45044;41.572;24.730;2024-03-02T14:21:59;14.75;;;9.77;;
59273;SDS011;45044;41.572;24.730;2024-03-02T14:24:27;13.98;;;9.48;;
59273;SDS011;45044;41.572;24.730;2024-03-02T14:26:56;11.60;;;8.60;;
59273;SDS011;45044;41.572;24.730;2024-03-02T14:29:45;15.07;;;10.93;;
59273;SDS011;45044;41.572;24.730;2024-03-02T14:32:12;18.58;;;14.07;;
59273;SDS011;45044;41.572;24.730;2024-03-02T14:34:38;21.20;;;13.77;;
59273;SDS011;45044;41.572;24.730;2024-03-02T14:37:06;22.80;;;17.23;;
59273;SDS011;45044;41.572;24.730;2024-03-02T14:39:34;21.48;;;15.65;;
59273;SDS011;45044;41.572;24.730;2024-03-02T14:42:03;21.60;;;16.35;;